CDT,Max TemperatureF,Mean TemperatureF,Min TemperatureF,Max Dew PointF,MeanDew PointF,Min DewpointF,Max Humidity, Mean Humidity, Min Humidity, Max Sea Level PressureIn, Mean Sea Level PressureIn, Min Sea Level PressureIn, Max VisibilityMiles, Mean VisibilityMiles, Min VisibilityMiles, Max Wind SpeedMPH, Mean Wind SpeedMPH, Max Gust SpeedMPH,PrecipitationIn, CloudCover, Events, WindDirDegrees
2013-4-1,39,32,24,21,18,12,74,59,38,30.26,30.17,30.00,10,10,10,20,13,25,0.00,1,,316
2013-4-2,42,30,17,21,16,12,86,59,31,30.36,30.31,30.27,10,10,10,21,9,28,0.00,0,,306
2013-4-3,46,32,17,19,16,10,86,52,27,30.47,30.39,30.30,10,10,10,12,7,,0.00,0,,89
2013-4-4,60,43,26,36,26,18,75,53,29,30.30,30.14,30.02,10,10,10,16,8,21,0.00,0,,261
2013-4-5,53,40,28,28,24,19,80,52,28,30.25,30.15,30.07,10,10,10,24,10,29,0.00,1,,69
2013-4-6,69,53,37,48,32,18,82,51,32,30.06,29.79,29.61,10,10,8,31,19,41,0.28,3,Thunderstorm,183
2013-4-7,62,48,35,39,37,32,87,67,39,29.98,29.89,29.73,10,9,3,18,10,26,0.28,1,,316
2013-4-8,71,58,44,54,46,36,93,72,43,29.91,29.76,29.56,10,8,2,23,14,30,1.24,3,,38
2013-4-9,60,50,41,54,44,36,87,82,76,29.95,29.87,29.80,10,6,3,24,16,30,0.45,3,Thunderstorm,73
2013-4-10,41,39,37,37,35,32,87,83,81,29.99,29.87,29.72,10,10,6,29,18,38,0.75,8,Thunderstorm,63
2013-4-11,48,42,37,43,37,30,93,85,75,29.76,29.65,29.59,10,7,2,24,15,34,0.06,8,,125
2013-4-12,39,37,35,36,30,28,93,77,65,29.91,29.73,29.60,10,10,2,25,14,31,0.01,8,,269
2013-4-13,48,40,33,32,28,25,81,66,49,30.00,29.95,29.90,10,10,5,22,15,25,0.00,7,,290
2013-4-14,73,55,37,52,39,30,82,60,38,29.98,29.75,29.56,10,10,5,25,16,32,0.49,2,Thunderstorm,125
2013-4-15,62,50,39,48,41,34,93,74,42,30.04,29.85,29.67,10,9,0,24,8,28,0.26,5,Thunderstorm,262
2013-4-16,51,42,32,39,32,27,87,66,44,30.25,30.17,30.01,10,10,10,12,6,16,0.00,2,,359
2013-4-17,48,44,41,41,35,30,87,73,57,30.27,30.15,29.95,10,9,2,26,16,38,1.69,7,Thunderstorm,86
2013-4-18,,,,,,,,,,,,,,,,,,,,,,
2013-4-19,,,,,,,,,,,,,,,,,,,,,,
2013-4-20,46,40,35,28,24,19,65,50,37,30.39,30.32,30.29,10,10,10,10,6,,0.00,2,,214
2013-4-21,57,46,35,37,31,25,66,58,44,30.46,30.35,30.25,10,10,10,25,15,31,0.00,2,,145
2013-4-22,68,56,44,45,37,34,72,51,33,30.26,30.15,30.01,10,10,5,22,13,26,0.00,2,,167
2013-4-23,51,44,37,46,36,30,87,80,70,30.05,30.01,29.96,10,10,6,20,10,23,0.29,5,,328
2013-4-24,51,42,33,30,28,25,81,58,35,30.12,30.08,30.03,10,10,10,20,10,24,0.00,2,,293
2013-4-25,53,43,33,34,25,19,81,52,26,30.31,30.23,30.08,10,10,9,28,15,32,0.00,1,,270
2013-4-26,68,54,39,46,38,28,76,55,40,30.30,30.26,30.21,10,10,10,29,14,34,0.00,2,,185
2013-4-27,62,53,44,46,43,39,87,66,48,30.28,30.17,30.01,10,9,2,15,7,18,0.00,2,,149
2013-4-28,71,58,44,46,45,41,93,61,35,30.01,29.91,29.83,10,9,2,10,2,,0.00,1,,287
2013-4-29,78,63,48,55,51,45,87,65,44,29.89,29.80,29.70,10,10,6,22,11,28,0.00,1,,176
2013-4-30,86,73,60,57,52,46,82,52,27,29.91,29.78,29.71,10,10,8,30,16,39,0.00,0,,191